sensor_id;sensor_type;location;lat;lon;timestamp;pressure;altitude;pressure_sealevel;temperature;humidity
24422;BME280;12600;53.326;-6.298;2022-11-25T00:01:07;99320.19;;;8.96;83.07
24422;BME280;12600;53.326;-6.298;2022-11-25T00:03:57;99328.84;;;8.99;83.04
24422;BME280;12600;53.326;-6.298;2022-11-25T00:06:48;99327.31;;;9.10;82.64
24422;BME280;12600;53.326;-6.298;2022-11-25T00:09:37;99339.00;;;9.10;82.58
24422;BME280;12600;53.326;-6.298;2022-11-25T00:12:27;99343.22;;;9.08;82.54
24422;BME280;12600;53.326;-6.298;2022-11-25T00:15:16;99350.44;;;9.04;82.57
24422;BME280;12600;53.326;-6.298;2022-11-25T00:18:06;99349.91;;;9.10;82.18
24422;BME280;12600;53.326;-6.298;2022-11-25T00:20:55;99365.00;;;9.08;81.83
24422;BME280;12600;53.326;-6.298;2022-11-25T00:23:50;99374.03;;;9.20;81.58
24422;BME280;12600;53.326;-6.298;2022-11-25T00:26:40;99361.69;;;9.23;80.93
24422;BME280;12600;53.326;-6.298;2022-11-25T00:29:29;99380.38;;;9.33;80.38
24422;BME280;12600;53.326;-6.298;2022-11-25T00:32:19;99391.06;;;9.38;79.60
24422;BME280;12600;53.326;-6.298;2022-11-25T00:35:08;99416.41;;;9.39;79.53
24422;BME280;12600;53.326;-6.298;2022-11-25T00:37:58;99407.97;;;9.32;79.37
24422;BME280;12600;53.326;-6.298;2022-11-25T00:40:51;99426.38;;;9.35;78.95
24422;BME280;12600;53.326;-6.298;2022-11-25T00:44:02;99431.16;;;9.38;78.61
24422;BME280;12600;53.326;-6.298;2022-11-25T00:47:11;99447.38;;;9.34;78.44
24422;BME280;12600;53.326;-6.298;2022-11-25T00:50:02;99453.97;;;9.33;78.49
24422;BME280;12600;53.326;-6.298;2022-11-25T00:52:52;99448.19;;;9.35;78.22
24422;BME280;12600;53.326;-6.298;2022-11-25T00:55:41;99460.06;;;9.30;78.31
24422;BME280;12600;53.326;-6.298;2022-11-25T00:58:52;99460.91;;;9.22;78.50
24422;BME280;12600;53.326;-6.298;2022-11-25T01:01:42;99486.56;;;9.21;78.82
24422;BME280;12600;53.326;-6.298;2022-11-25T01:04:32;99476.00;;;9.19;78.92
24422;BME280;12600;53.326;-6.298;2022-11-25T01:07:22;99493.81;;;9.17;79.35
24422;BME280;12600;53.326;-6.298;2022-11-25T01:10:12;99493.81;;;9.17;79.35
24422;BME280;12600;53.326;-6.298;2022-11-25T01:13:01;99506.97;;;9.15;79.17
24422;BME280;12600;53.326;-6.298;2022-11-25T01:15:52;99513.50;;;9.22;79.07
24422;BME280;12600;53.326;-6.298;2022-11-25T01:18:41;99526.06;;;9.15;79.13
24422;BME280;12600;53.326;-6.298;2022-11-25T01:21:32;99529.56;;;9.15;79.18
24422;BME280;12600;53.326;-6.298;2022-11-25T01:24:22;99530.66;;;9.23;78.81
24422;BME280;12600;53.326;-6.298;2022-11-25T01:27:13;99547.00;;;9.23;78.58
24422;BME280;12600;53.326;-6.298;2022-11-25T01:30:04;99546.84;;;9.19;78.73
24422;BME280;12600;53.326;-6.298;2022-11-25T01:32:55;99554.06;;;9.24;78.83
24422;BME280;12600;53.326;-6.298;2022-11-25T01:35:46;99563.38;;;9.23;78.79
24422;BME280;12600;53.326;-6.298;2022-11-25T01:38:36;99578.38;;;9.29;78.81
24422;BME280;12600;53.326;-6.298;2022-11-25T01:41:27;99584.00;;;9.33;78.43
24422;BME280;12600;53.326;-6.298;2022-11-25T01:44:21;99585.28;;;9.35;78.14
24422;BME280;12600;53.326;-6.298;2022-11-25T01:47:15;99591.19;;;9.37;77.88
24422;BME280;12600;53.326;-6.298;2022-11-25T01:50:10;99597.94;;;9.40;77.95
24422;BME280;12600;53.326;-6.298;2022-11-25T01:53:04;99600.19;;;9.29;77.79
24422;BME280;12600;53.326;-6.298;2022-11-25T01:56:01;99599.25;;;9.25;77.92
24422;BME280;12600;53.326;-6.298;2022-11-25T01:58:53;99612.69;;;9.30;77.75
24422;BME280;12600;53.326;-6.298;2022-11-25T02:01:43;99619.81;;;9.22;77.86
24422;BME280;12600;53.326;-6.298;2022-11-25T02:04:35;99632.75;;;9.25;77.96
24422;BME280;12600;53.326;-6.298;2022-11-25T02:07:30;99628.28;;;9.21;77.61
24422;BME280;12600;53.326;-6.298;2022-11-25T02:10:27;99638.06;;;9.22;77.79
24422;BME280;12600;53.326;-6.298;2022-11-25T02:13:17;99651.22;;;9.20;77.58
24422;BME280;12600;53.326;-6.298;2022-11-25T02:16:07;99651.41;;;9.15;77.44
24422;BME280;12600;53.326;-6.298;2022-11-25T02:18:57;99663.25;;;9.19;77.31
24422;BME280;12600;53.326;-6.298;2022-11-25T02:21:53;99669.81;;;9.18;77.24
24422;BME280;12600;53.326;-6.298;2022-11-25T02:24:46;99674.31;;;9.22;76.74
24422;BME280;12600;53.326;-6.298;2022-11-25T02:27:43;99684.09;;;9.23;76.80
24422;BME280;12600;53.326;-6.298;2022-11-25T02:30:36;99690.63;;;9.31;76.63
24422;BME280;12600;53.326;-6.298;2022-11-25T02:33:26;99698.97;;;9.35;76.91
24422;BME280;12600;53.326;-6.298;2022-11-25T02:36:20;99698.16;;;9.34;75.98
24422;BME280;12600;53.326;-6.298;2022-11-25T02:39:10;99699.75;;;9.35;76.26
24422;BME280;12600;53.326;-6.298;2022-11-25T02:42:02;99717.25;;;9.25;76.38
24422;BME280;12600;53.326;-6.298;2022-11-25T02:44:53;99724.63;;;9.25;76.54
24422;BME280;12600;53.326;-6.298;2022-11-25T02:47:44;99712.94;;;9.16;77.06
24422;BME280;12600;53.326;-6.298;2022-11-25T02:50:33;99728.00;;;9.13;77.25
24422;BME280;12600;53.326;-6.298;2022-11-25T02:53:22;99742.94;;;9.16;77.18
24422;BME280;12600;53.326;-6.298;2022-11-25T02:56:13;99734.91;;;9.11;77.20
24422;BME280;12600;53.326;-6.298;2022-11-25T02:59:04;99740.00;;;9.21;76.91
24422;BME280;12600;53.326;-6.298;2022-11-25T03:01:54;99727.03;;;9.27;76.34
24422;BME280;12600;53.326;-6.298;2022-11-25T03:04:46;99746.44;;;9.34;76.36
24422;BME280;12600;53.326;-6.298;2022-11-25T03:07:35;99759.91;;;9.39;75.76
24422;BME280;12600;53.326;-6.298;2022-11-25T03:10:25;99764.06;;;9.28;76.00
24422;BME280;12600;53.326;-6.298;2022-11-25T03:13:14;99769.53;;;9.19;76.43
24422;BME280;12600;53.326;-6.298;2022-11-25T03:16:04;99778.69;;;9.14;76.76
24422;BME280;12600;53.326;-6.298;2022-11-25T03:18:55;99773.53;;;9.04;77.29
24422;BME280;12600;53.326;-6.298;2022-11-25T03:21:44;99779.44;;;9.06;77.33
24422;BME280;12600;53.326;-6.298;2022-11-25T03:24:34;99783.63;;;9.04;77.56
24422;BME280;12600;53.326;-6.298;2022-11-25T03:27:23;99791.66;;;8.91;77.98
24422;BME280;12600;53.326;-6.298;2022-11-25T03:30:20;99813.91;;;9.02;77.53
24422;BME280;12600;53.326;-6.298;2022-11-25T03:33:12;99800.28;;;8.93;78.12
24422;BME280;12600;53.326;-6.298;2022-11-25T03:36:03;99813.13;;;9.02;78.01
24422;BME280;12600;53.326;-6.298;2022-11-25T03:38:53;99821.78;;;9.04;77.56
24422;BME280;12600;53.326;-6.298;2022-11-25T03:41:43;99829.63;;;9.05;77.55
24422;BME280;12600;53.326;-6.298;2022-11-25T03:44:33;99842.28;;;8.92;78.02
24422;BME280;12600;53.326;-6.298;2022-11-25T03:47:23;99844.69;;;9.03;77.95
24422;BME280;12600;53.326;-6.298;2022-11-25T03:50:14;99850.78;;;9.00;77.88
24422;BME280;12600;53.326;-6.298;2022-11-25T03:53:07;99858.63;;;8.92;78.30
24422;BME280;12600;53.326;-6.298;2022-11-25T03:55:57;99862.50;;;9.00;78.04
24422;BME280;12600;53.326;-6.298;2022-11-25T03:58:46;99860.22;;;8.93;78.08
24422;BME280;12600;53.326;-6.298;2022-11-25T04:01:36;99877.84;;;8.87;78.62
24422;BME280;12600;53.326;-6.298;2022-11-25T04:04:31;99859.25;;;8.89;78.53
24422;BME280;12600;53.326;-6.298;2022-11-25T04:07:21;99870.91;;;8.81;78.63
24422;BME280;12600;53.326;-6.298;2022-11-25T04:10:12;99894.19;;;8.87;78.70
24422;BME280;12600;53.326;-6.298;2022-11-25T04:13:03;99906.50;;;8.85;78.67
24422;BME280;12600;53.326;-6.298;2022-11-25T04:15:56;99906.19;;;8.86;78.19
24422;BME280;12600;53.326;-6.298;2022-11-25T04:18:46;99903.47;;;8.86;78.33
24422;BME280;12600;53.326;-6.298;2022-11-25T04:21:36;99929.09;;;8.85;78.00
24422;BME280;12600;53.326;-6.298;2022-11-25T04:24:25;99936.44;;;8.76;78.12
24422;BME280;12600;53.326;-6.298;2022-11-25T04:27:16;99935.81;;;8.79;78.23
24422;BME280;12600;53.326;-6.298;2022-11-25T04:30:09;99922.97;;;8.71;78.02
24422;BME280;12600;53.326;-6.298;2022-11-25T04:33:01;99943.81;;;8.76;78.29
24422;BME280;12600;53.326;-6.298;2022-11-25T04:35:51;99940.09;;;8.72;78.68
24422;BME280;12600;53.326;-6.298;2022-11-25T04:38:40;99950.19;;;8.71;78.85
24422;BME280;12600;53.326;-6.298;2022-11-25T04:41:30;99950.03;;;8.67;79.08
24422;BME280;12600;53.326;-6.298;2022-11-25T04:44:21;99954.72;;;8.76;78.49
24422;BME280;12600;53.326;-6.298;2022-11-25T04:47:12;99969.06;;;8.59;79.43
24422;BME280;12600;53.326;-6.298;2022-11-25T04:50:01;99973.84;;;8.62;79.05
24422;BME280;12600;53.326;-6.298;2022-11-25T04:52:53;99981.16;;;8.75;78.75
24422;BME280;12600;53.326;-6.298;2022-11-25T04:55:43;99970.22;;;8.66;78.57
24422;BME280;12600;53.326;-6.298;2022-11-25T04:58:35;99986.59;;;8.75;78.31
24422;BME280;12600;53.326;-6.298;2022-11-25T05:01:43;99991.34;;;8.69;77.92
24422;BME280;12600;53.326;-6.298;2022-11-25T05:04:51;99991.69;;;8.68;77.90
24422;BME280;12600;53.326;-6.298;2022-11-25T05:07:41;99991.53;;;8.73;77.47
24422;BME280;12600;53.326;-6.298;2022-11-25T05:10:32;99994.88;;;8.70;77.05
24422;BME280;12600;53.326;-6.298;2022-11-25T05:13:21;99993.13;;;8.74;76.71
24422;BME280;12600;53.326;-6.298;2022-11-25T05:16:11;100010.75;;;8.68;76.63
24422;BME280;12600;53.326;-6.298;2022-11-25T05:19:02;99999.22;;;8.71;77.00
24422;BME280;12600;53.326;-6.298;2022-11-25T05:21:52;100019.72;;;8.68;77.14
24422;BME280;12600;53.326;-6.298;2022-11-25T05:24:41;100029.56;;;8.56;77.00
24422;BME280;12600;53.326;-6.298;2022-11-25T05:27:32;100025.59;;;8.62;77.41
24422;BME280;12600;53.326;-6.298;2022-11-25T05:30:27;100033.75;;;8.62;77.45
24422;BME280;12600;53.326;-6.298;2022-11-25T05:33:16;100036.97;;;8.64;77.05
24422;BME280;12600;53.326;-6.298;2022-11-25T05:36:09;100012.47;;;8.41;77.49
24422;BME280;12600;53.326;-6.298;2022-11-25T05:39:06;100038.09;;;8.63;77.31
24422;BME280;12600;53.326;-6.298;2022-11-25T05:42:14;100066.44;;;8.62;77.24
24422;BME280;12600;53.326;-6.298;2022-11-25T05:45:06;100067.06;;;8.59;77.30
24422;BME280;12600;53.326;-6.298;2022-11-25T05:47:56;100078.94;;;8.63;76.96
24422;BME280;12600;53.326;-6.298;2022-11-25T05:50:47;100081.28;;;8.56;76.82
24422;BME280;12600;53.326;-6.298;2022-11-25T05:53:41;100090.56;;;8.55;77.21
24422;BME280;12600;53.326;-6.298;2022-11-25T05:56:31;100095.53;;;8.53;77.20
24422;BME280;12600;53.326;-6.298;2022-11-25T05:59:38;100094.41;;;8.54;77.02
24422;BME280;12600;53.326;-6.298;2022-11-25T06:02:38;100109.00;;;8.58;77.25
24422;BME280;12600;53.326;-6.298;2022-11-25T06:05:34;100088.09;;;8.45;77.02
24422;BME280;12600;53.326;-6.298;2022-11-25T06:08:23;100134.03;;;8.60;76.84
24422;BME280;12600;53.326;-6.298;2022-11-25T06:11:16;100137.72;;;8.64;76.83
24422;BME280;12600;53.326;-6.298;2022-11-25T06:14:06;100143.97;;;8.64;76.99
24422;BME280;12600;53.326;-6.298;2022-11-25T06:16:55;100158.84;;;8.58;77.15
24422;BME280;12600;53.326;-6.298;2022-11-25T06:20:08;100157.59;;;8.64;77.05
24422;BME280;12600;53.326;-6.298;2022-11-25T06:22:59;100162.88;;;8.61;76.98
24422;BME280;12600;53.326;-6.298;2022-11-25T06:25:52;100176.06;;;8.67;77.00
24422;BME280;12600;53.326;-6.298;2022-11-25T06:28:46;100183.41;;;8.67;76.70
24422;BME280;12600;53.326;-6.298;2022-11-25T06:31:35;100189.69;;;8.67;76.85
24422;BME280;12600;53.326;-6.298;2022-11-25T06:34:45;100181.69;;;8.71;77.15
24422;BME280;12600;53.326;-6.298;2022-11-25T06:37:46;100176.28;;;8.57;77.10
24422;BME280;12600;53.326;-6.298;2022-11-25T06:40:36;100190.97;;;8.70;77.47
24422;BME280;12600;53.326;-6.298;2022-11-25T06:43:25;100188.25;;;8.70;77.38
24422;BME280;12600;53.326;-6.298;2022-11-25T06:46:18;100201.38;;;8.68;77.09
24422;BME280;12600;53.326;-6.298;2022-11-25T06:49:12;100203.75;;;8.83;76.78
24422;BME280;12600;53.326;-6.298;2022-11-25T06:52:02;100214.44;;;8.80;77.04
24422;BME280;12600;53.326;-6.298;2022-11-25T06:54:52;100225.63;;;8.78;77.21
24422;BME280;12600;53.326;-6.298;2022-11-25T06:57:41;100223.94;;;8.82;77.31
24422;BME280;12600;53.326;-6.298;2022-11-25T07:00:30;100237.03;;;8.80;77.50
24422;BME280;12600;53.326;-6.298;2022-11-25T07:03:21;100232.81;;;8.74;78.05
24422;BME280;12600;53.326;-6.298;2022-11-25T07:06:11;100225.97;;;8.77;77.44
24422;BME280;12600;53.326;-6.298;2022-11-25T07:09:01;100236.44;;;8.83;77.38
24422;BME280;12600;53.326;-6.298;2022-11-25T07:11:51;100241.06;;;8.83;77.78
24422;BME280;12600;53.326;-6.298;2022-11-25T07:14:40;100245.81;;;8.77;77.61
24422;BME280;12600;53.326;-6.298;2022-11-25T07:17:30;100249.53;;;8.81;77.74
24422;BME280;12600;53.326;-6.298;2022-11-25T07:20:22;100233.19;;;8.81;77.96
24422;BME280;12600;53.326;-6.298;2022-11-25T07:23:14;100254.50;;;8.79;78.08
24422;BME280;12600;53.326;-6.298;2022-11-25T07:26:06;100257.91;;;8.85;77.88
24422;BME280;12600;53.326;-6.298;2022-11-25T07:28:59;100262.16;;;8.77;77.86
24422;BME280;12600;53.326;-6.298;2022-11-25T07:31:48;100264.69;;;8.74;78.04
24422;BME280;12600;53.326;-6.298;2022-11-25T07:34:38;100262.28;;;8.72;78.20
24422;BME280;12600;53.326;-6.298;2022-11-25T07:37:29;100260.56;;;8.76;78.25
24422;BME280;12600;53.326;-6.298;2022-11-25T07:40:19;100270.34;;;8.77;78.19
24422;BME280;12600;53.326;-6.298;2022-11-25T07:43:08;100286.59;;;8.82;78.45
24422;BME280;12600;53.326;-6.298;2022-11-25T07:46:09;100272.84;;;8.74;79.12
24422;BME280;12600;53.326;-6.298;2022-11-25T07:49:00;100283.75;;;8.74;79.00
24422;BME280;12600;53.326;-6.298;2022-11-25T07:51:52;100289.31;;;8.82;79.28
24422;BME280;12600;53.326;-6.298;2022-11-25T07:54:43;100296.16;;;8.80;79.60
24422;BME280;12600;53.326;-6.298;2022-11-25T07:57:32;100309.06;;;8.88;78.96
24422;BME280;12600;53.326;-6.298;2022-11-25T08:00:22;100308.25;;;8.87;79.47
24422;BME280;12600;53.326;-6.298;2022-11-25T08:03:11;100318.72;;;8.94;79.24
24422;BME280;12600;53.326;-6.298;2022-11-25T08:06:01;100329.00;;;8.97;79.10
24422;BME280;12600;53.326;-6.298;2022-11-25T08:08:52;100329.41;;;9.04;79.02
24422;BME280;12600;53.326;-6.298;2022-11-25T08:11:45;100327.59;;;9.00;78.86
24422;BME280;12600;53.326;-6.298;2022-11-25T08:14:35;100352.53;;;9.07;79.10
24422;BME280;12600;53.326;-6.298;2022-11-25T08:17:25;100336.53;;;9.14;78.80
24422;BME280;12600;53.326;-6.298;2022-11-25T08:20:14;100358.22;;;9.19;78.56
24422;BME280;12600;53.326;-6.298;2022-11-25T08:23:04;100351.97;;;9.18;78.48
24422;BME280;12600;53.326;-6.298;2022-11-25T08:25:54;100361.97;;;9.23;78.44
24422;BME280;12600;53.326;-6.298;2022-11-25T08:28:45;100367.59;;;9.27;78.38
24422;BME280;12600;53.326;-6.298;2022-11-25T08:31:37;100376.59;;;9.27;78.21
24422;BME280;12600;53.326;-6.298;2022-11-25T08:34:26;100380.56;;;9.43;78.16
24422;BME280;12600;53.326;-6.298;2022-11-25T08:37:21;100372.81;;;9.37;78.24
24422;BME280;12600;53.326;-6.298;2022-11-25T08:40:11;100388.34;;;9.50;78.10
24422;BME280;12600;53.326;-6.298;2022-11-25T08:43:01;100386.31;;;9.56;77.86
24422;BME280;12600;53.326;-6.298;2022-11-25T08:45:56;100400.22;;;9.54;77.80
24422;BME280;12600;53.326;-6.298;2022-11-25T08:48:45;100407.56;;;9.67;77.57
24422;BME280;12600;53.326;-6.298;2022-11-25T08:51:37;100425.53;;;9.68;77.29
24422;BME280;12600;53.326;-6.298;2022-11-25T08:54:26;100407.06;;;9.65;77.49
24422;BME280;12600;53.326;-6.298;2022-11-25T08:57:16;100430.47;;;9.80;77.30
24422;BME280;12600;53.326;-6.298;2022-11-25T09:00:07;100447.31;;;9.82;77.35
24422;BME280;12600;53.326;-6.298;2022-11-25T09:02:58;100429.78;;;9.74;77.41
24422;BME280;12600;53.326;-6.298;2022-11-25T09:05:52;100434.00;;;9.80;77.22
24422;BME280;12600;53.326;-6.298;2022-11-25T09:08:43;100441.56;;;9.84;77.69
24422;BME280;12600;53.326;-6.298;2022-11-25T09:11:32;100467.84;;;9.79;77.75
24422;BME280;12600;53.326;-6.298;2022-11-25T09:14:22;100456.69;;;9.90;77.41
24422;BME280;12600;53.326;-6.298;2022-11-25T09:17:12;100457.19;;;9.92;77.58
24422;BME280;12600;53.326;-6.298;2022-11-25T09:20:07;100447.06;;;9.92;77.46
24422;BME280;12600;53.326;-6.298;2022-11-25T09:23:03;100479.84;;;10.15;77.06
24422;BME280;12600;53.326;-6.298;2022-11-25T09:25:54;100485.78;;;10.17;77.29
24422;BME280;12600;53.326;-6.298;2022-11-25T09:28:43;100504.91;;;10.17;77.05
24422;BME280;12600;53.326;-6.298;2022-11-25T09:31:33;100484.59;;;10.23;77.11
24422;BME280;12600;53.326;-6.298;2022-11-25T09:34:23;100499.34;;;10.22;77.26
24422;BME280;12600;53.326;-6.298;2022-11-25T09:37:14;100516.53;;;10.22;77.00
24422;BME280;12600;53.326;-6.298;2022-11-25T09:40:07;100507.31;;;10.18;77.29
24422;BME280;12600;53.326;-6.298;2022-11-25T09:43:10;100535.44;;;10.19;77.45
24422;BME280;12600;53.326;-6.298;2022-11-25T09:46:39;100527.34;;;10.27;77.38
24422;BME280;12600;53.326;-6.298;2022-11-25T09:49:53;100551.31;;;10.30;77.12
24422;BME280;12600;53.326;-6.298;2022-11-25T09:52:52;100537.34;;;10.32;77.11
24422;BME280;12600;53.326;-6.298;2022-11-25T09:55:49;100540.75;;;10.38;77.19
24422;BME280;12600;53.326;-6.298;2022-11-25T09:58:50;100571.78;;;10.42;77.20
24422;BME280;12600;53.326;-6.298;2022-11-25T10:01:47;100586.75;;;10.44;76.87
24422;BME280;12600;53.326;-6.298;2022-11-25T10:04:42;100585.00;;;10.48;77.18
24422;BME280;12600;53.326;-6.298;2022-11-25T10:07:41;100602.16;;;10.62;76.92
24422;BME280;12600;53.326;-6.298;2022-11-25T10:10:41;100604.09;;;10.62;76.85
24422;BME280;12600;53.326;-6.298;2022-11-25T10:13:40;100598.72;;;10.57;76.90
24422;BME280;12600;53.326;-6.298;2022-11-25T10:16:39;100615.94;;;10.57;77.18
24422;BME280;12600;53.326;-6.298;2022-11-25T10:19:49;100635.91;;;10.67;76.82
24422;BME280;12600;53.326;-6.298;2022-11-25T10:22:43;100625.81;;;10.67;76.91
24422;BME280;12600;53.326;-6.298;2022-11-25T10:25:38;100638.75;;;10.75;76.80
24422;BME280;12600;53.326;-6.298;2022-11-25T10:28:31;100632.88;;;10.90;76.75
24422;BME280;12600;53.326;-6.298;2022-11-25T10:31:28;100649.41;;;10.85;76.81
24422;BME280;12600;53.326;-6.298;2022-11-25T10:34:29;100648.47;;;10.90;76.30
24422;BME280;12600;53.326;-6.298;2022-11-25T10:37:28;100649.16;;;10.96;76.28
24422;BME280;12600;53.326;-6.298;2022-11-25T10:40:18;100658.66;;;10.98;75.94
24422;BME280;12600;53.326;-6.298;2022-11-25T10:43:12;100669.47;;;11.03;75.73
24422;BME280;12600;53.326;-6.298;2022-11-25T10:46:24;100670.41;;;10.99;76.05
24422;BME280;12600;53.326;-6.298;2022-11-25T10:49:43;100690.47;;;11.16;75.58
24422;BME280;12600;53.326;-6.298;2022-11-25T10:52:43;100679.22;;;11.18;75.51
24422;BME280;12600;53.326;-6.298;2022-11-25T10:55:34;100689.03;;;11.19;75.33
24422;BME280;12600;53.326;-6.298;2022-11-25T10:58:32;100685.22;;;11.29;75.06
24422;BME280;12600;53.326;-6.298;2022-11-25T11:01:23;100686.03;;;11.29;74.51
24422;BME280;12600;53.326;-6.298;2022-11-25T11:04:13;100684.34;;;11.42;74.51
24422;BME280;12600;53.326;-6.298;2022-11-25T11:07:08;100691.75;;;11.41;74.15
24422;BME280;12600;53.326;-6.298;2022-11-25T11:10:18;100705.91;;;11.43;74.12
24422;BME280;12600;53.326;-6.298;2022-11-25T11:13:22;100695.47;;;11.45;74.23
24422;BME280;12600;53.326;-6.298;2022-11-25T11:16:27;100698.91;;;11.60;73.95
24422;BME280;12600;53.326;-6.298;2022-11-25T11:19:21;100723.34;;;11.47;73.91
24422;BME280;12600;53.326;-6.298;2022-11-25T11:22:16;100710.19;;;11.58;74.01
24422;BME280;12600;53.326;-6.298;2022-11-25T11:25:23;100703.25;;;11.61;73.56
24422;BME280;12600;53.326;-6.298;2022-11-25T11:28:36;100708.16;;;11.72;73.86
24422;BME280;12600;53.326;-6.298;2022-11-25T11:31:33;100714.34;;;12.35;72.24
24422;BME280;12600;53.326;-6.298;2022-11-25T11:34:57;100719.25;;;13.25;69.34
24422;BME280;12600;53.326;-6.298;2022-11-25T11:37:53;100732.63;;;13.90;66.37
24422;BME280;12600;53.326;-6.298;2022-11-25T11:40:50;100736.72;;;14.52;62.94
24422;BME280;12600;53.326;-6.298;2022-11-25T11:43:54;100726.78;;;15.01;60.38
24422;BME280;12600;53.326;-6.298;2022-11-25T11:47:13;100739.06;;;15.37;58.35
24422;BME280;12600;53.326;-6.298;2022-11-25T11:50:25;100738.50;;;15.77;58.36
24422;BME280;12600;53.326;-6.298;2022-11-25T11:53:24;100747.00;;;15.84;56.05
24422;BME280;12600;53.326;-6.298;2022-11-25T11:56:26;100739.22;;;16.10;55.28
24422;BME280;12600;53.326;-6.298;2022-11-25T11:59:53;100762.06;;;16.35;55.54
24422;BME280;12600;53.326;-6.298;2022-11-25T12:02:55;100744.97;;;15.93;54.73
24422;BME280;12600;53.326;-6.298;2022-11-25T12:05:48;100760.53;;;15.44;55.37
24422;BME280;12600;53.326;-6.298;2022-11-25T12:08:46;100776.25;;;15.43;56.62
24422;BME280;12600;53.326;-6.298;2022-11-25T12:11:42;100778.31;;;15.13;56.99
24422;BME280;12600;53.326;-6.298;2022-11-25T12:14:40;100794.75;;;14.80;58.43
24422;BME280;12600;53.326;-6.298;2022-11-25T12:17:35;100791.31;;;14.62;59.11
24422;BME280;12600;53.326;-6.298;2022-11-25T12:20:36;100792.63;;;14.56;59.89
24422;BME280;12600;53.326;-6.298;2022-11-25T12:23:39;100765.13;;;14.18;60.56
24422;BME280;12600;53.326;-6.298;2022-11-25T12:26:41;100813.75;;;14.26;60.68
24422;BME280;12600;53.326;-6.298;2022-11-25T12:29:38;100811.69;;;14.23;60.74
24422;BME280;12600;53.326;-6.298;2022-11-25T12:32:52;100812.00;;;14.21;60.82
24422;BME280;12600;53.326;-6.298;2022-11-25T12:35:55;100818.16;;;14.18;61.29
24422;BME280;12600;53.326;-6.298;2022-11-25T12:39:01;100820.09;;;14.18;61.43
24422;BME280;12600;53.326;-6.298;2022-11-25T12:41:54;100839.75;;;14.37;60.79
24422;BME280;12600;53.326;-6.298;2022-11-25T12:44:52;100835.56;;;14.31;61.10
24422;BME280;12600;53.326;-6.298;2022-11-25T12:47:46;100836.66;;;14.39;61.16
24422;BME280;12600;53.326;-6.298;2022-11-25T12:50:48;100838.91;;;14.54;60.65
24422;BME280;12600;53.326;-6.298;2022-11-25T12:53:52;100848.25;;;14.62;60.29
24422;BME280;12600;53.326;-6.298;2022-11-25T12:57:10;100859.03;;;14.67;60.16
24422;BME280;12600;53.326;-6.298;2022-11-25T13:00:12;100845.78;;;14.69;59.76
24422;BME280;12600;53.326;-6.298;2022-11-25T13:03:47;100848.31;;;14.74;59.12
24422;BME280;12600;53.326;-6.298;2022-11-25T13:10:39;100862.22;;;14.48;59.28
24422;BME280;12600;53.326;-6.298;2022-11-25T13:13:49;100873.94;;;14.10;60.23
24422;BME280;12600;53.326;-6.298;2022-11-25T13:16:46;100868.97;;;13.86;60.83
24422;BME280;12600;53.326;-6.298;2022-11-25T13:19:37;100876.94;;;13.44;62.40
24422;BME280;12600;53.326;-6.298;2022-11-25T13:22:27;100879.34;;;13.37;62.69
24422;BME280;12600;53.326;-6.298;2022-11-25T13:25:24;100874.84;;;13.24;63.12
24422;BME280;12600;53.326;-6.298;2022-11-25T13:28:29;100884.31;;;13.09;64.25
24422;BME280;12600;53.326;-6.298;2022-11-25T13:31:22;100891.53;;;12.97;64.58
24422;BME280;12600;53.326;-6.298;2022-11-25T13:34:31;100887.47;;;12.85;64.98
24422;BME280;12600;53.326;-6.298;2022-11-25T13:37:35;100896.81;;;12.76;65.52
24422;BME280;12600;53.326;-6.298;2022-11-25T13:40:36;100898.06;;;12.70;65.67
24422;BME280;12600;53.326;-6.298;2022-11-25T13:43:26;100904.16;;;12.67;66.38
24422;BME280;12600;53.326;-6.298;2022-11-25T13:46:29;100920.47;;;12.63;67.09
24422;BME280;12600;53.326;-6.298;2022-11-25T13:49:31;100929.97;;;12.66;67.79
24422;BME280;12600;53.326;-6.298;2022-11-25T13:52:36;100924.47;;;12.57;68.21
24422;BME280;12600;53.326;-6.298;2022-11-25T13:55:34;100916.59;;;12.64;68.45
24422;BME280;12600;53.326;-6.298;2022-11-25T13:58:25;100931.09;;;12.65;68.97
24422;BME280;12600;53.326;-6.298;2022-11-25T14:01:22;100930.97;;;12.39;69.76
24422;BME280;12600;53.326;-6.298;2022-11-25T14:04:21;100933.75;;;12.47;70.20
24422;BME280;12600;53.326;-6.298;2022-11-25T14:07:29;100931.66;;;12.44;70.66
24422;BME280;12600;53.326;-6.298;2022-11-25T14:10:42;100926.63;;;12.38;71.21
24422;BME280;12600;53.326;-6.298;2022-11-25T14:13:53;100932.59;;;12.40;71.90
24422;BME280;12600;53.326;-6.298;2022-11-25T14:17:03;100926.00;;;12.41;71.82
24422;BME280;12600;53.326;-6.298;2022-11-25T14:20:10;100930.53;;;12.45;71.59
24422;BME280;12600;53.326;-6.298;2022-11-25T14:23:48;100930.06;;;12.43;71.94
24422;BME280;12600;53.326;-6.298;2022-11-25T14:26:43;100922.75;;;12.39;71.69
24422;BME280;12600;53.326;-6.298;2022-11-25T14:29:42;100929.44;;;12.55;71.28
24422;BME280;12600;53.326;-6.298;2022-11-25T14:32:39;100927.88;;;12.63;70.47
24422;BME280;12600;53.326;-6.298;2022-11-25T14:35:36;100930.97;;;12.70;70.29
24422;BME280;12600;53.326;-6.298;2022-11-25T14:38:39;100937.38;;;12.65;70.23
24422;BME280;12600;53.326;-6.298;2022-11-25T14:41:36;100939.31;;;12.65;69.61
24422;BME280;12600;53.326;-6.298;2022-11-25T14:44:35;100951.25;;;12.60;69.50
24422;BME280;12600;53.326;-6.298;2022-11-25T14:47:30;100952.63;;;12.49;68.83
24422;BME280;12600;53.326;-6.298;2022-11-25T14:50:26;100960.00;;;12.40;68.41
24422;BME280;12600;53.326;-6.298;2022-11-25T14:53:23;100971.44;;;12.42;67.99
24422;BME280;12600;53.326;-6.298;2022-11-25T14:56:15;100959.69;;;12.41;67.32
24422;BME280;12600;53.326;-6.298;2022-11-25T14:59:07;100958.03;;;12.31;67.39
24422;BME280;12600;53.326;-6.298;2022-11-25T15:01:59;100961.88;;;12.30;67.15
24422;BME280;12600;53.326;-6.298;2022-11-25T15:04:49;100957.66;;;12.24;67.06
24422;BME280;12600;53.326;-6.298;2022-11-25T15:07:41;100970.97;;;12.17;67.11
24422;BME280;12600;53.326;-6.298;2022-11-25T15:10:40;100969.03;;;12.18;66.72
24422;BME280;12600;53.326;-6.298;2022-11-25T15:13:34;100986.00;;;12.20;66.29
24422;BME280;12600;53.326;-6.298;2022-11-25T15:16:31;100995.13;;;12.15;67.05
24422;BME280;12600;53.326;-6.298;2022-11-25T15:19:25;101003.47;;;12.10;66.64